KALS

San Luis Valley Regional / Bergman Field Airport

Alamosa, Colorado, USA
KALS 211927Z 2119/2218 20012KT P6SM VCTS SCT080CB BKN140 TEMPO 2120/2121 VRB20G30KT 5SM -TSRA BKN060CB FM220100 32008KT P6SM VCSH BKN100 FM220600 VRB06KT P6SM FEW120 SCT200
Issued Valid From Valid To
Jul-21 @ 19:27 UTC
(3 hours ago)
Jul-21 @ 19:00 UTC
(4 hours ago)
Jul-22 @ 18:00 UTC
(in 19 hours)
Jul-21 @ 19:00 to Jul-22 @ 01:00
KALS 211927Z 2119/2218 20012KT P6SM VCTS SCT080CB BKN140
Wind Visibility Clouds Conditions
200° at 12 knots Greater than 6 miles
  • Scattered at 8,000' AGL
  • Broken at 14,000' AGL
  • Area Thunderstorm
Expired Click to View Jul-21 @ 20:00 to Jul-21 @ 21:00
TEMPO 2120/2121 VRB20G30KT 5SM -TSRA BKN060CB
Wind Visibility Clouds Conditions
Variable at 20 knots
 Gusting to 30 knots
5 miles
  • Broken at 6,000' AGL
  • Light Thunderstorm
  • Light Rain
From Jul-22 @ 01:00 to Jul-22 @ 06:00
FM220100 32008KT P6SM VCSH BKN100
Wind Visibility Clouds
320° at 8 knots Greater than 6 miles
  • Broken at 10,000' AGL
From Jul-22 @ 06:00 to Jul-22 @ 18:00
FM220600 VRB06KT P6SM FEW120 SCT200
Wind Visibility Clouds
Variable at 6 knots Greater than 6 miles
  • Few at 12,000' AGL
  • Scattered at 20,000' AGL
KALS 211927Z 2119/2218 20012KT P6SM VCTS SCT080CB BKN140 TEMPO 2120/2121 VRB20G30KT 5SM -TSRA BKN060CB FM220100 32008KT P6SM VCSH BKN100 FM220600 VRB06KT P6SM FEW120 SCT200
Issued Jul-21 @ 19:27 UTC
(3 hours ago)
Valid From Jul-21 @ 19:00 UTC
(4 hours ago)
Valid To Jul-22 @ 18:00 UTC
(in 19 hours)
Jul-21 @ 19:00 - Jul-22 @ 01:00
Wind Visibility
200° at 12 knots Greater than 6 miles
Clouds
  • Scattered at 8,000' AGL
  • Broken at 14,000' AGL
Conditions
  • Area Thunderstorm
Jul-21 @ 20:00 - Jul-21 @ 21:00
Wind Visibility
Variable at 20 knots
 Gusting to 30 knots
5 miles
Clouds
  • Broken at 6,000' AGL
Conditions
  • Light Thunderstorm
  • Light Rain
From Jul-22 @ 01:00 - Jul-22 @ 06:00
Wind Visibility
320° at 8 knots Greater than 6 miles
Clouds
  • Broken at 10,000' AGL
From Jul-22 @ 06:00 - Jul-22 @ 18:00
Wind Visibility
Variable at 6 knots Greater than 6 miles
Clouds
  • Few at 12,000' AGL
  • Scattered at 20,000' AGL